createdAt,value
2023-01-22T00:00:20.669Z,100074.66
2023-01-22T00:02:49.681Z,100075.53
2023-01-22T00:05:18.360Z,100072.03
2023-01-22T00:07:46.936Z,100067.69
2023-01-22T00:10:15.935Z,100074.66
2023-01-22T00:12:46.105Z,100078.13
2023-01-22T00:15:16.752Z,100071.19
2023-01-22T00:17:45.135Z,100078.09
2023-01-22T00:20:14.993Z,100070.19
2023-01-22T00:22:43.351Z,100071.88
2023-01-22T00:25:13.645Z,100062.41
2023-01-22T00:27:43.777Z,100059.84
2023-01-22T00:30:14.921Z,100058.09
2023-01-22T00:32:44.852Z,100070.25
2023-01-22T00:35:13.614Z,100056.31
2023-01-22T00:37:44.006Z,100054.59
2023-01-22T00:40:14.936Z,100059.78
2023-01-22T00:42:44.190Z,100061.56
2023-01-22T00:45:16.068Z,100058.06
2023-01-22T00:47:44.258Z,100058.09
2023-01-22T00:50:13.502Z,100051.97
2023-01-22T00:52:41.654Z,100048.50
2023-01-22T00:55:11.234Z,100045.06
2023-01-22T00:57:39.670Z,100053.72
2023-01-22T01:00:10.736Z,100039.81
2023-01-22T01:02:56.158Z,100033.75
2023-01-22T01:05:26.010Z,100037.19
2023-01-22T01:07:54.330Z,100030.28
2023-01-22T01:10:22.761Z,100037.06
2023-01-22T01:12:51.070Z,100035.47
2023-01-22T01:15:20.847Z,100043.28
2023-01-22T01:17:51.106Z,100042.44
2023-01-22T01:20:20.433Z,100040.63
2023-01-22T01:22:48.690Z,100037.16
2023-01-22T01:25:18.288Z,100031.09
2023-01-22T01:27:46.666Z,100035.41
2023-01-22T01:30:18.272Z,100030.28
2023-01-22T01:32:46.948Z,100039.69
2023-01-22T01:35:17.896Z,100034.50
2023-01-22T01:37:46.326Z,100035.50
2023-01-22T01:40:15.723Z,100035.47
2023-01-22T01:42:44.993Z,100032.78
2023-01-22T01:45:26.227Z,100028.41
2023-01-22T01:48:01.701Z,100033.63
2023-01-22T01:50:31.876Z,100025.88
2023-01-22T01:53:02.531Z,100017.19
2023-01-22T01:55:34.471Z,100025.81
2023-01-22T01:58:10.948Z,100025.81
2023-01-22T02:00:43.408Z,100024.06
2023-01-22T02:03:13.588Z,100019.72
2023-01-22T02:05:44.237Z,100021.41
2023-01-22T02:08:13.167Z,100014.53
2023-01-22T02:10:43.151Z,100018.84
2023-01-22T02:13:16.014Z,100022.34
2023-01-22T02:15:44.754Z,100022.31
2023-01-22T02:18:13.266Z,100031.84
2023-01-22T02:20:56.413Z,100016.19
2023-01-22T02:23:25.611Z,100010.16
2023-01-22T02:25:55.911Z,100015.38
2023-01-22T02:28:24.454Z,100015.38
2023-01-22T02:30:55.665Z,100022.31
2023-01-22T02:33:23.821Z,100020.53
2023-01-22T02:35:53.813Z,100010.06
2023-01-22T02:38:23.007Z,100019.66
2023-01-22T02:40:51.449Z,100025.69
2023-01-22T02:43:19.934Z,100023.97
2023-01-22T02:45:50.634Z,100020.44
2023-01-22T02:48:20.314Z,100017.91
2023-01-22T02:50:48.559Z,100022.25
2023-01-22T02:53:19.876Z,100010.09
2023-01-22T02:55:49.308Z,100010.88
2023-01-22T02:58:18.861Z,100004.84
2023-01-22T03:00:47.613Z,100005.72
2023-01-22T03:03:17.489Z,100009.13
2023-01-22T03:05:49.680Z,100004.81
2023-01-22T03:08:20.754Z,100009.13
2023-01-22T03:10:49.293Z,100008.28
2023-01-22T03:13:35.172Z,100006.56
2023-01-22T03:16:22.617Z,100003.88
2023-01-22T03:19:08.307Z,100004.75
2023-01-22T03:21:38.493Z,99999.59
2023-01-22T03:24:09.711Z,100012.59
2023-01-22T03:26:38.685Z,100018.63
2023-01-22T03:29:10.335Z,100011.72
2023-01-22T03:31:40.231Z,100005.59
2023-01-22T03:34:08.617Z,100007.34
2023-01-22T03:36:37.536Z,100011.59
2023-01-22T03:39:07.369Z,100009.91
2023-01-22T03:41:36.115Z,100009.00
2023-01-22T03:44:09.435Z,100011.50
2023-01-22T03:46:37.767Z,100012.41
2023-01-22T03:49:07.392Z,100012.41
2023-01-22T03:51:37.670Z,100016.78
2023-01-22T03:54:08.562Z,100014.16
2023-01-22T03:56:39.592Z,100010.72
2023-01-22T03:59:09.094Z,100009.75
2023-01-22T04:01:38.963Z,100008.84
2023-01-22T04:04:07.151Z,100000.19
2023-01-22T04:06:35.858Z,100016.75
2023-01-22T04:09:04.555Z,100028.13
2023-01-22T04:11:35.506Z,100019.41
2023-01-22T04:14:03.901Z,100022.00
2023-01-22T04:16:33.164Z,100018.53
2023-01-22T04:19:02.174Z,100015.94
2023-01-22T04:21:30.452Z,100011.50
2023-01-22T04:23:59.150Z,100025.41
2023-01-22T04:26:27.611Z,100031.56
2023-01-22T04:28:59.999Z,100025.47
2023-01-22T04:31:29.930Z,100025.41
2023-01-22T04:33:58.600Z,100017.50
2023-01-22T04:36:28.944Z,100028.88
2023-01-22T04:38:59.025Z,100017.66
2023-01-22T04:41:30.106Z,100026.25
2023-01-22T04:44:00.222Z,100008.88
2023-01-22T04:46:29.665Z,100005.25
2023-01-22T04:48:58.080Z,100016.59
2023-01-22T04:51:27.009Z,100010.56
2023-01-22T04:53:55.256Z,100010.47
2023-01-22T04:56:23.591Z,100013.22
2023-01-22T04:58:52.063Z,100021.03
2023-01-22T05:01:22.343Z,100015.81
2023-01-22T05:03:50.547Z,100016.75
2023-01-22T05:06:19.214Z,100011.53
2023-01-22T05:08:50.477Z,100008.97
2023-01-22T05:11:21.218Z,100008.91
2023-01-22T05:13:57.372Z,100021.09
2023-01-22T05:16:36.149Z,100025.38
2023-01-22T05:19:05.812Z,100025.38
2023-01-22T05:21:34.451Z,100028.88
2023-01-22T05:24:03.354Z,100030.50
2023-01-22T05:26:31.719Z,100032.34
2023-01-22T05:29:10.698Z,100027.19
2023-01-22T05:31:41.874Z,100031.53
2023-01-22T05:34:11.133Z,100032.41
2023-01-22T05:36:41.132Z,100029.72
2023-01-22T05:39:09.210Z,100032.34
2023-01-22T05:41:38.311Z,100037.66
2023-01-22T05:44:07.548Z,100028.88
2023-01-22T05:46:37.172Z,100034.09
2023-01-22T05:49:10.744Z,100045.41
2023-01-22T05:51:42.344Z,100044.47
2023-01-22T05:54:13.197Z,100042.63
2023-01-22T05:56:45.824Z,100043.47
2023-01-22T05:59:14.987Z,100048.81
2023-01-22T06:01:43.327Z,100054.06
2023-01-22T06:04:13.157Z,100058.41
2023-01-22T06:06:43.049Z,100061.03
2023-01-22T06:09:13.717Z,100056.75
2023-01-22T06:11:42.491Z,100061.94
2023-01-22T06:14:12.021Z,100054.16
2023-01-22T06:16:40.686Z,100061.03
2023-01-22T06:19:09.468Z,100058.41
2023-01-22T06:21:43.007Z,100054.88
2023-01-22T06:24:14.606Z,100068.03
2023-01-22T06:26:43.333Z,100062.56
2023-01-22T06:29:12.136Z,100068.75
2023-01-22T06:31:42.170Z,100072.00
2023-01-22T06:34:11.026Z,100061.72
2023-01-22T06:36:43.518Z,100061.69
2023-01-22T06:39:12.104Z,100066.94
2023-01-22T06:41:40.765Z,100067.94
2023-01-22T06:44:08.999Z,100077.41
2023-01-22T06:46:37.816Z,100077.09
2023-01-22T06:49:06.018Z,100081.72
2023-01-22T06:51:34.401Z,100080.81
2023-01-22T06:54:04.606Z,100087.69
2023-01-22T06:56:33.705Z,100087.75
2023-01-22T06:59:02.779Z,100099.19
2023-01-22T07:01:31.342Z,100088.53
2023-01-22T07:04:00.089Z,100091.25
2023-01-22T07:06:28.535Z,100106.16
2023-01-22T07:08:57.635Z,100105.22
2023-01-22T07:11:27.984Z,100097.50
2023-01-22T07:13:56.301Z,100111.97
2023-01-22T07:16:24.769Z,100112.91
2023-01-22T07:18:53.599Z,100113.88
2023-01-22T07:21:25.236Z,100115.59
2023-01-22T07:23:56.012Z,100118.28
2023-01-22T07:26:28.188Z,100125.13
2023-01-22T07:28:56.709Z,100128.72
2023-01-22T07:31:25.503Z,100136.41
2023-01-22T07:33:54.143Z,100132.97
2023-01-22T07:36:22.632Z,100131.09
2023-01-22T07:38:51.097Z,100140.69
2023-01-22T07:41:25.914Z,100138.75
2023-01-22T07:43:57.898Z,100143.94
2023-01-22T07:46:28.192Z,100135.28
2023-01-22T07:48:56.537Z,100142.88
2023-01-22T07:51:24.784Z,100138.53
2023-01-22T07:53:53.048Z,100147.13
2023-01-22T07:56:22.316Z,100145.41
2023-01-22T07:58:50.984Z,100149.66
2023-01-22T08:01:20.900Z,100148.91
2023-01-22T08:03:49.225Z,100152.31
2023-01-22T08:06:20.947Z,100152.19
2023-01-22T08:08:51.433Z,100153.94
2023-01-22T08:11:19.661Z,100156.66
2023-01-22T08:13:48.159Z,100161.16
2023-01-22T08:16:16.568Z,100159.22
2023-01-22T08:18:49.613Z,100163.56
2023-01-22T08:21:17.952Z,100163.53
2023-01-22T08:23:48.989Z,100172.25
2023-01-22T08:26:17.606Z,100169.59
2023-01-22T08:28:46.063Z,100159.19
2023-01-22T08:31:27.036Z,100177.34
2023-01-22T08:34:00.693Z,100173.94
2023-01-22T08:36:29.176Z,100186.16
2023-01-22T08:38:57.244Z,100177.47
2023-01-22T08:41:27.460Z,100186.19
2023-01-22T08:43:57.573Z,100178.09
2023-01-22T08:46:25.875Z,100173.09
2023-01-22T08:48:54.886Z,100178.13
2023-01-22T08:51:25.240Z,100183.63
2023-01-22T08:53:54.176Z,100180.00
2023-01-22T08:56:22.886Z,100195.00
2023-01-22T08:58:51.778Z,100199.41
2023-01-22T09:01:21.932Z,100193.19
2023-01-22T09:03:51.224Z,100202.72
2023-01-22T09:06:23.069Z,100196.47
2023-01-22T09:08:56.826Z,100203.38
2023-01-22T09:11:27.433Z,100210.50
2023-01-22T09:13:57.169Z,100207.09
2023-01-22T09:16:25.718Z,100204.88
2023-01-22T09:18:53.905Z,100215.63
2023-01-22T09:21:22.504Z,100211.09
2023-01-22T09:23:51.356Z,100215.16
2023-01-22T09:26:21.245Z,100214.56
2023-01-22T09:28:50.756Z,100214.34
2023-01-22T09:31:19.394Z,100214.44
2023-01-22T09:33:51.413Z,100215.25
2023-01-22T09:36:20.241Z,100213.78
2023-01-22T09:38:48.567Z,100209.38
2023-01-22T09:41:27.548Z,100215.50
2023-01-22T09:44:00.434Z,100222.28
2023-01-22T09:46:35.603Z,100220.41
2023-01-22T09:49:12.664Z,100219.38
2023-01-22T09:51:40.876Z,100221.09
2023-01-22T09:54:13.180Z,100222.06
2023-01-22T09:56:45.817Z,100221.09
2023-01-22T09:59:19.620Z,100228.06
2023-01-22T10:01:52.928Z,100221.84
2023-01-22T10:04:32.581Z,100219.31
2023-01-22T10:07:04.732Z,100216.88
2023-01-22T10:09:36.237Z,100217.88
2023-01-22T10:12:14.993Z,100220.44
2023-01-22T10:14:45.525Z,100231.78
2023-01-22T10:17:20.284Z,100226.41
2023-01-22T10:19:55.543Z,100223.69
2023-01-22T10:22:26.224Z,100220.38
2023-01-22T10:24:55.070Z,100215.97
2023-01-22T10:27:33.553Z,100216.75
2023-01-22T10:30:04.721Z,100226.38
2023-01-22T10:32:33.919Z,100218.66
2023-01-22T10:35:05.635Z,100219.63
2023-01-22T10:37:45.187Z,100219.47
2023-01-22T10:40:24.300Z,100218.75
2023-01-22T10:43:11.998Z,100230.81
2023-01-22T10:45:41.000Z,100229.09
2023-01-22T10:48:15.233Z,100227.13
2023-01-22T10:50:45.365Z,100224.63
2023-01-22T10:53:24.819Z,100224.75
2023-01-22T10:55:56.217Z,100226.34
2023-01-22T10:58:29.577Z,100221.19
2023-01-22T11:01:01.066Z,100228.09
2023-01-22T11:03:35.966Z,100228.91
2023-01-22T11:06:12.352Z,100223.84
2023-01-22T11:08:46.973Z,100227.06
2023-01-22T11:11:17.474Z,100225.34
2023-01-22T11:13:55.230Z,100223.72
2023-01-22T11:16:25.509Z,100229.97
2023-01-22T11:18:59.272Z,100226.59
2023-01-22T11:21:31.580Z,100229.00
2023-01-22T11:24:06.177Z,100226.41
2023-01-22T11:26:59.958Z,100231.75
2023-01-22T11:29:48.145Z,100222.78
2023-01-22T11:32:40.689Z,100222.75
2023-01-22T11:35:21.329Z,100227.06
2023-01-22T11:38:00.558Z,100224.41
2023-01-22T11:40:30.980Z,100215.84
2023-01-22T11:43:18.977Z,100217.72
2023-01-22T11:46:10.955Z,100223.66
2023-01-22T11:48:56.745Z,100228.94
2023-01-22T11:51:33.473Z,100221.06
2023-01-22T11:54:24.138Z,100221.03
2023-01-22T11:57:09.327Z,100224.41
2023-01-22T11:59:58.143Z,100216.59
2023-01-22T12:02:59.089Z,100221.13
2023-01-22T12:05:39.083Z,100216.50
2023-01-22T12:08:32.984Z,100211.38
2023-01-22T12:11:21.725Z,100213.97
2023-01-22T12:14:25.945Z,100199.16
2023-01-22T12:17:07.111Z,100204.47
2023-01-22T12:19:58.639Z,100208.03
2023-01-22T12:22:45.982Z,100202.41
2023-01-22T12:25:21.835Z,100208.03
2023-01-22T12:27:56.072Z,100207.03
2023-01-22T12:30:32.158Z,100209.63
2023-01-22T12:33:18.165Z,100212.44
2023-01-22T12:35:47.408Z,100214.22
2023-01-22T12:38:35.969Z,100216.91
2023-01-22T12:41:16.577Z,100219.59
2023-01-22T12:43:50.925Z,100222.03
2023-01-22T12:46:27.011Z,100218.75
2023-01-22T12:49:04.788Z,100214.38
2023-01-22T12:51:41.542Z,100217.84
2023-01-22T12:54:32.522Z,100218.66
2023-01-22T12:57:13.112Z,100225.50
2023-01-22T12:59:50.642Z,100217.03
2023-01-22T13:02:38.130Z,100225.59
2023-01-22T13:05:50.288Z,100218.78
2023-01-22T13:08:41.101Z,100225.72
2023-01-22T13:11:13.124Z,100218.75
2023-01-22T13:13:48.337Z,100231.72
2023-01-22T13:16:26.522Z,100235.19
2023-01-22T13:18:59.102Z,100240.44
2023-01-22T13:21:30.947Z,100236.91
2023-01-22T13:24:05.401Z,100245.72
2023-01-22T13:26:41.679Z,100244.91
2023-01-22T13:29:28.878Z,100247.59
2023-01-22T13:32:00.748Z,100252.72
2023-01-22T13:34:32.318Z,100251.97
2023-01-22T13:37:02.627Z,100258.13
2023-01-22T13:39:35.718Z,100252.03
2023-01-22T13:42:13.872Z,100253.59
2023-01-22T13:44:49.365Z,100255.34
2023-01-22T13:47:29.512Z,100250.91
2023-01-22T13:49:58.099Z,100250.88
2023-01-22T13:52:28.407Z,100248.44
2023-01-22T13:55:04.283Z,100254.50
2023-01-22T13:57:35.991Z,100257.81
2023-01-22T14:00:07.080Z,100263.22
2023-01-22T14:02:39.336Z,100257.84
2023-01-22T14:05:18.644Z,100270.16
2023-01-22T14:07:47.062Z,100258.97
2023-01-22T14:10:22.808Z,100266.78
2023-01-22T14:13:03.820Z,100261.38
2023-01-22T14:15:34.073Z,100264.09
2023-01-22T14:18:10.502Z,100273.63
2023-01-22T14:20:40.185Z,100265.91
2023-01-22T14:23:09.174Z,100266.69
2023-01-22T14:25:39.091Z,100269.34
2023-01-22T14:28:09.577Z,100277.38
2023-01-22T14:30:38.248Z,100280.78
2023-01-22T14:33:06.645Z,100286.03
2023-01-22T14:35:37.630Z,100278.13
2023-01-22T14:38:05.675Z,100279.88
2023-01-22T14:40:36.342Z,100279.94
2023-01-22T14:43:05.783Z,100283.41
2023-01-22T14:45:36.000Z,100288.63
2023-01-22T14:48:05.174Z,100290.44
2023-01-22T14:50:34.544Z,100296.50
2023-01-22T14:53:02.997Z,100295.69
2023-01-22T14:55:31.333Z,100297.41
2023-01-22T14:58:00.689Z,100300.03
2023-01-22T15:00:29.611Z,100293.03
2023-01-22T15:03:00.905Z,100291.22
2023-01-22T15:05:29.876Z,100294.78
2023-01-22T15:07:59.463Z,100298.25
2023-01-22T15:10:27.595Z,100304.38
2023-01-22T15:12:56.805Z,100303.44
2023-01-22T15:15:28.730Z,100303.53
2023-01-22T15:17:59.590Z,100293.03
2023-01-22T15:20:30.903Z,100305.13
2023-01-22T15:22:59.973Z,100315.72
2023-01-22T15:25:32.403Z,100316.69
2023-01-22T15:28:04.703Z,100313.16
2023-01-22T15:30:34.384Z,100321.91
2023-01-22T15:33:04.269Z,100328.88
2023-01-22T15:35:32.621Z,100329.78
2023-01-22T15:38:01.143Z,100335.81
2023-01-22T15:40:29.336Z,100329.78
2023-01-22T15:42:57.718Z,100334.13
2023-01-22T15:45:25.844Z,100335.94
2023-01-22T15:47:56.261Z,100328.75
2023-01-22T15:50:27.292Z,100332.41
2023-01-22T15:52:56.491Z,100334.94
2023-01-22T15:55:26.345Z,100339.25
2023-01-22T15:57:54.611Z,100341.06
2023-01-22T16:00:23.597Z,100348.06
2023-01-22T16:02:52.726Z,100345.34
2023-01-22T16:05:21.406Z,100358.50
2023-01-22T16:07:52.593Z,100355.78
2023-01-22T16:10:20.968Z,100359.47
2023-01-22T16:12:49.557Z,100349.91
2023-01-22T16:15:20.170Z,100354.25
2023-01-22T16:17:48.753Z,100368.25
2023-01-22T16:20:17.926Z,100366.47
2023-01-22T16:22:49.525Z,100374.31
2023-01-22T16:25:19.739Z,100375.25
2023-01-22T16:27:50.564Z,100376.13
2023-01-22T16:30:19.716Z,100377.00
2023-01-22T16:32:48.321Z,100381.38
2023-01-22T16:35:18.641Z,100383.06
2023-01-22T16:37:48.594Z,100382.22
2023-01-22T16:40:19.530Z,100386.59
2023-01-22T16:43:00.370Z,100387.44
2023-01-22T16:45:29.320Z,100389.19
2023-01-22T16:47:57.858Z,100393.47
2023-01-22T16:50:33.323Z,100395.28
2023-01-22T16:53:02.412Z,100398.78
2023-01-22T16:55:32.287Z,100401.41
2023-01-22T16:58:01.136Z,100405.78
2023-01-22T17:00:29.237Z,100404.94
2023-01-22T17:03:04.367Z,100401.41
2023-01-22T17:05:35.881Z,100408.38
2023-01-22T17:08:04.517Z,100413.56
2023-01-22T17:10:37.333Z,100410.97
2023-01-22T17:13:07.581Z,100417.13
2023-01-22T17:15:42.844Z,100421.50
2023-01-22T17:18:17.344Z,100417.13
2023-01-22T17:21:01.178Z,100422.38
2023-01-22T17:23:32.352Z,100422.38
2023-01-22T17:26:07.007Z,100421.44
2023-01-22T17:28:39.999Z,100427.50
2023-01-22T17:31:10.926Z,100425.75
2023-01-22T17:33:40.164Z,100431.03
2023-01-22T17:36:11.242Z,100428.34
2023-01-22T17:38:39.575Z,100434.41
2023-01-22T17:41:14.344Z,100441.44
2023-01-22T17:43:44.015Z,100432.66
2023-01-22T17:46:15.056Z,100437.09
2023-01-22T17:48:43.962Z,100442.22
2023-01-22T17:51:13.971Z,100443.09
2023-01-22T17:53:45.456Z,100445.81
2023-01-22T17:56:18.620Z,100443.19
2023-01-22T17:58:50.420Z,100447.47
2023-01-22T18:01:20.552Z,100445.78
2023-01-22T18:03:49.392Z,100446.66
2023-01-22T18:06:18.536Z,100451.84
2023-01-22T18:08:47.078Z,100448.44
2023-01-22T18:11:19.648Z,100448.38
2023-01-22T18:13:49.255Z,100455.38
2023-01-22T18:16:19.877Z,100450.13
2023-01-22T18:18:48.368Z,100465.75
2023-01-22T18:21:19.574Z,100457.06
2023-01-22T18:23:49.896Z,100457.06
2023-01-22T18:26:23.179Z,100454.41
2023-01-22T18:28:51.943Z,100452.75
2023-01-22T18:31:22.455Z,100458.00
2023-01-22T18:33:51.120Z,100464.06
2023-01-22T18:36:24.689Z,100453.66
2023-01-22T18:38:55.480Z,100462.34
2023-01-22T18:41:27.822Z,100462.34
2023-01-22T18:43:58.081Z,100469.31
2023-01-22T18:46:28.592Z,100459.72
2023-01-22T18:49:01.236Z,100466.72
2023-01-22T18:51:30.540Z,100459.72
2023-01-22T18:54:01.972Z,100463.22
2023-01-22T18:56:32.165Z,100463.16
2023-01-22T18:59:00.885Z,100478.03
2023-01-22T19:01:31.362Z,100473.69
2023-01-22T19:04:03.263Z,100475.41
2023-01-22T19:06:34.641Z,100477.97
2023-01-22T19:09:06.486Z,100472.78
2023-01-22T19:11:40.726Z,100470.28
2023-01-22T19:14:09.347Z,100483.25
2023-01-22T19:16:41.146Z,100475.44
2023-01-22T19:19:11.595Z,100472.78
2023-01-22T19:21:41.596Z,100478.06
2023-01-22T19:24:11.588Z,100481.53
2023-01-22T19:26:44.782Z,100481.56
2023-01-22T19:29:17.553Z,100479.78
2023-01-22T19:31:47.448Z,100486.72
2023-01-22T19:34:23.561Z,100489.41
2023-01-22T19:36:53.481Z,100484.16
2023-01-22T19:39:21.776Z,100485.03
2023-01-22T19:41:51.690Z,100492.72
2023-01-22T19:44:22.596Z,100496.28
2023-01-22T19:46:51.415Z,100506.69
2023-01-22T19:49:20.209Z,100497.06
2023-01-22T19:51:48.662Z,100501.53
2023-01-22T19:54:18.626Z,100498.03
2023-01-22T19:56:47.160Z,100501.56
2023-01-22T19:59:19.837Z,100507.56
2023-01-22T20:01:50.863Z,100506.69
2023-01-22T20:04:22.673Z,100510.19
2023-01-22T20:06:52.589Z,100514.47
2023-01-22T20:09:21.999Z,100511.03
2023-01-22T20:11:53.982Z,100523.28
2023-01-22T20:14:25.739Z,100527.59
2023-01-22T20:16:54.609Z,100525.94
2023-01-22T20:19:23.247Z,100523.28
2023-01-22T20:21:51.548Z,100528.53
2023-01-22T20:24:19.710Z,100531.16
2023-01-22T20:26:49.373Z,100534.69
2023-01-22T20:29:17.848Z,100526.03
2023-01-22T20:31:48.081Z,100536.41
2023-01-22T20:34:16.309Z,100540.78
2023-01-22T20:36:44.570Z,100530.34
2023-01-22T20:39:13.580Z,100540.72
2023-01-22T20:41:41.880Z,100541.59
2023-01-22T20:44:12.284Z,100540.75
2023-01-22T20:46:44.501Z,100542.50
2023-01-22T20:49:14.796Z,100544.19
2023-01-22T20:51:45.932Z,100539.84
2023-01-22T20:54:15.027Z,100532.06
2023-01-22T20:56:43.225Z,100535.56
2023-01-22T20:59:13.203Z,100535.53
2023-01-22T21:01:41.745Z,100532.94
2023-01-22T21:04:10.649Z,100545.16
2023-01-22T21:06:42.907Z,100554.72
2023-01-22T21:09:12.250Z,100558.19
2023-01-22T21:11:42.604Z,100563.34
2023-01-22T21:14:16.041Z,100557.31
2023-01-22T21:16:45.188Z,100552.97
2023-01-22T21:19:18.292Z,100557.34
2023-01-22T21:21:48.784Z,100556.47
2023-01-22T21:24:17.351Z,100556.44
2023-01-22T21:26:45.979Z,100558.19
2023-01-22T21:29:16.607Z,100563.44
2023-01-22T21:31:49.076Z,100555.66
2023-01-22T21:34:18.741Z,100563.44
2023-01-22T21:36:54.486Z,100558.19
2023-01-22T21:39:25.652Z,100564.34
2023-01-22T21:42:14.526Z,100549.53
2023-01-22T21:44:59.939Z,100548.69
2023-01-22T21:47:28.151Z,100553.06
2023-01-22T21:49:57.614Z,100551.31
2023-01-22T21:52:30.018Z,100546.94
2023-01-22T21:55:00.996Z,100550.47
2023-01-22T21:57:29.527Z,100546.91
2023-01-22T21:59:57.755Z,100554.78
2023-01-22T22:02:28.563Z,100569.56
2023-01-22T22:05:00.107Z,100560.00
2023-01-22T22:07:29.629Z,100555.59
2023-01-22T22:09:58.034Z,100555.63
2023-01-22T22:12:27.901Z,100566.06
2023-01-22T22:14:56.184Z,100557.38
2023-01-22T22:17:24.916Z,100549.47
2023-01-22T22:19:53.397Z,100563.38
2023-01-22T22:22:23.900Z,100559.94
2023-01-22T22:24:54.324Z,100562.56
2023-01-22T22:27:22.775Z,100556.50
2023-01-22T22:29:53.588Z,100565.16
2023-01-22T22:32:22.772Z,100575.66
2023-01-22T22:34:51.551Z,100573.94
2023-01-22T22:37:19.792Z,100566.06
2023-01-22T22:39:49.217Z,100557.28
2023-01-22T22:42:18.896Z,100562.59
2023-01-22T22:44:47.133Z,100561.72
2023-01-22T22:47:15.225Z,100569.53
2023-01-22T22:49:44.215Z,100562.56
2023-01-22T22:52:13.470Z,100559.09
2023-01-22T22:54:42.592Z,100572.97
2023-01-22T22:57:11.169Z,100567.66
2023-01-22T22:59:41.162Z,100579.88
2023-01-22T23:02:10.641Z,100573.78
2023-01-22T23:04:38.858Z,100571.25
2023-01-22T23:07:07.052Z,100579.03
2023-01-22T23:09:36.945Z,100575.56
2023-01-22T23:12:05.449Z,100569.53
2023-01-22T23:14:33.833Z,100571.25
2023-01-22T23:17:04.941Z,100569.47
2023-01-22T23:19:33.423Z,100577.38
2023-01-22T23:22:02.066Z,100570.38
2023-01-22T23:24:31.945Z,100568.63
2023-01-22T23:27:00.168Z,100579.09
2023-01-22T23:29:29.569Z,100572.09
2023-01-22T23:31:58.709Z,100570.28
2023-01-22T23:34:28.715Z,100566.84
2023-01-22T23:36:57.479Z,100569.50
2023-01-22T23:39:25.776Z,100575.56
2023-01-22T23:41:53.914Z,100579.91
2023-01-22T23:44:22.111Z,100578.25
2023-01-22T23:46:50.184Z,100572.16
2023-01-22T23:49:22.008Z,100579.06
2023-01-22T23:51:54.764Z,100579.97
2023-01-22T23:54:23.162Z,100583.50
2023-01-22T23:56:51.552Z,100570.44
2023-01-22T23:59:20.034Z,100581.66
